Time;durP1;ratioP1;P1;durP2;ratioP2;P2;SDS_P1;SDS_P2;PMS_P1;PMS_P2;Temp;Humidity;BMP_temperature;BMP_pressure;BME280_temperature;BME280_humidity;BME280_pressure;Samples;Min_cycle;Max_cycle;Signal;HPM_P1;HPM_P2
2022/08/21 00:02:06;;;;;;;5.10;2.83;;;15.00;93.90;;;;;;5073058;28;20404;-71
2022/08/21 00:04:32;;;;;;;3.43;3.17;;;15.00;93.80;;;;;;5065849;28;20435;-74
2022/08/21 00:06:58;;;;;;;3.90;3.53;;;15.00;94.20;;;;;;5074382;28;20412;-70
2022/08/21 00:09:24;;;;;;;4.53;3.27;;;15.00;99.00;;;;;;5073492;28;20443;-70
2022/08/21 00:11:50;;;;;;;5.23;3.00;;;15.00;94.00;;;;;;5093340;28;20945;-70
2022/08/21 00:14:16;;;;;;;5.27;3.90;;;14.90;95.00;;;;;;5066816;28;20420;-70
2022/08/21 00:16:42;;;;;;;6.07;3.47;;;14.90;93.80;;;;;;5072168;28;20428;-74
2022/08/21 00:19:08;;;;;;;5.53;3.60;;;14.90;93.80;;;;;;5060673;28;20971;-73
2022/08/21 00:21:35;;;;;;;3.77;3.33;;;14.90;93.90;;;;;;5092971;28;20404;-69
2022/08/21 00:24:01;;;;;;;7.70;3.63;;;14.90;99.90;;;;;;5070324;28;20416;-74
2022/08/21 00:26:27;;;;;;;4.37;3.20;;;14.90;99.30;;;;;;5055087;28;20416;-73
2022/08/21 00:28:53;;;;;;;5.47;3.80;;;14.90;93.80;;;;;;5072689;28;20514;-74
2022/08/21 00:31:19;;;;;;;3.20;2.90;;;14.90;94.50;;;;;;5056205;28;20181;-70
2022/08/21 00:33:45;;;;;;;7.10;3.77;;;14.90;99.90;;;;;;5075020;28;20181;-70
2022/08/21 00:36:12;;;;;;;8.33;3.60;;;14.80;99.90;;;;;;5091430;28;20631;-70
2022/08/21 00:38:39;;;;;;;3.53;3.20;;;14.80;99.90;;;;;;5054738;28;20539;-70
2022/08/21 00:41:07;;;;;;;12.53;3.70;;;14.80;99.90;;;;;;5055072;28;20439;-75
2022/08/21 00:43:36;;;;;;;3.73;3.43;;;14.80;95.10;;;;;;5077446;28;20423;-74
2022/08/21 00:46:05;;;;;;;5.30;3.03;;;14.70;93.70;;;;;;5096023;28;20407;-70
2022/08/21 00:48:32;;;;;;;6.83;3.80;;;14.70;93.80;;;;;;5060417;28;20449;-70
2022/08/21 00:51:07;;;;;;;3.57;3.23;;;14.60;93.70;;;;;;5058953;28;20408;-71
2022/08/21 00:53:35;;;;;;;4.20;3.60;;;14.60;93.80;;;;;;5093491;28;20473;-70
2022/08/21 00:59:35;;;;;;;3.20;3.00;;;14.60;99.90;;;;;;4975410;28;20516;-69
2022/08/21 01:02:04;;;;;;;4.73;2.70;;;14.50;99.90;;;;;;4978736;28;20424;-69
2022/08/21 01:04:29;;;;;;;3.93;3.63;;;14.50;99.90;;;;;;5046590;28;20412;-70
2022/08/21 01:06:56;;;;;;;4.33;3.80;;;14.40;94.30;;;;;;5080500;28;20502;-69
2022/08/21 01:09:21;;;;;;;4.67;3.40;;;14.40;96.90;;;;;;5096536;28;20785;-74
2022/08/21 01:11:48;;;;;;;6.20;3.20;;;14.40;99.90;;;;;;5091628;28;20507;-72
2022/08/21 01:14:15;;;;;;;4.37;3.97;;;14.40;99.90;;;;;;5058570;28;20181;-74
2022/08/21 01:16:45;;;;;;;4.80;3.83;;;14.40;99.90;;;;;;5077319;28;20416;-74
2022/08/21 01:19:11;;;;;;;3.87;3.57;;;14.30;99.90;;;;;;5096056;28;20529;-69
2022/08/21 01:21:37;;;;;;;4.83;4.00;;;14.30;99.90;;;;;;5076301;28;20776;-74
2022/08/21 01:24:04;;;;;;;3.50;3.23;;;14.30;99.90;;;;;;5096219;28;20412;-74
2022/08/21 01:26:37;;;;;;;5.60;3.23;;;14.30;97.80;;;;;;5079218;28;20773;-74
2022/08/21 01:29:15;;;;;;;5.80;3.30;;;14.30;99.90;;;;;;5057252;28;20447;-69
2022/08/21 01:31:41;;;;;;;4.17;2.90;;;14.20;99.90;;;;;;5091895;28;20542;-75
2022/08/21 01:34:08;;;;;;;5.63;3.83;;;14.20;99.90;;;;;;5078085;28;20451;-69
2022/08/21 01:36:35;;;;;;;3.93;3.13;;;14.20;99.90;;;;;;5079911;28;20173;-74
2022/08/21 01:39:03;;;;;;;3.60;3.40;;;14.20;99.90;;;;;;5075264;28;20542;-71
2022/08/21 01:41:29;;;;;;;5.70;3.80;;;14.20;99.90;;;;;;5070739;28;20451;-69
2022/08/21 01:43:55;;;;;;;4.83;4.37;;;14.20;99.90;;;;;;5077873;28;20442;-74
2022/08/21 01:46:21;;;;;;;5.97;4.60;;;14.20;99.90;;;;;;5083279;28;20448;-70
2022/08/21 01:48:47;;;;;;;4.40;4.00;;;14.20;99.90;;;;;;5075617;28;20421;-73
2022/08/21 01:51:14;;;;;;;6.70;3.83;;;14.20;99.90;;;;;;5070448;28;20200;-69
2022/08/21 01:53:40;;;;;;;4.13;3.73;;;14.20;99.90;;;;;;5095669;28;20400;-69
2022/08/21 01:56:09;;;;;;;9.83;3.20;;;14.10;99.90;;;;;;5076543;28;20411;-69
2022/08/21 01:58:35;;;;;;;4.73;3.70;;;14.10;99.90;;;;;;5094810;28;20451;-70
2022/08/21 02:01:02;;;;;;;10.23;5.30;;;14.00;99.90;;;;;;5077278;28;20425;-74
2022/08/21 02:03:29;;;;;;;6.40;3.43;;;14.00;99.90;;;;;;5076122;28;20179;-74
2022/08/21 02:05:55;;;;;;;7.23;4.27;;;14.00;99.90;;;;;;5057400;28;20423;-74
2022/08/21 02:08:23;;;;;;;5.00;3.87;;;14.00;99.90;;;;;;5090831;28;20437;-69
2022/08/21 02:10:50;;;;;;;4.27;3.70;;;14.00;99.90;;;;;;5095429;28;20403;-74
2022/08/21 02:13:16;;;;;;;4.20;3.97;;;14.00;99.90;;;;;;5079609;28;20439;-74
2022/08/21 02:15:42;;;;;;;4.03;3.73;;;14.00;99.90;;;;;;5057030;28;20420;-69
2022/08/21 02:18:08;;;;;;;6.00;4.30;;;13.90;99.90;;;;;;5073277;28;20835;-74
2022/08/21 02:20:41;;;;;;;6.50;4.67;;;13.90;99.90;;;;;;5076780;28;20455;-73
2022/08/21 02:23:10;;;;;;;4.47;3.70;;;13.90;99.90;;;;;;5059592;28;20822;-74
2022/08/21 02:25:41;;;;;;;7.20;4.93;;;13.90;99.90;;;;;;5056764;28;20736;-74
2022/08/21 02:28:10;;;;;;;4.73;4.37;;;13.90;99.90;;;;;;5071595;28;20455;-69
2022/08/21 02:30:40;;;;;;;4.70;3.70;;;14.00;99.90;;;;;;5076652;28;20443;-69
2022/08/21 02:33:09;;;;;;;3.90;3.63;;;14.00;99.90;;;;;;5057027;28;20753;-73
2022/08/21 02:35:36;;;;;;;4.67;4.27;;;13.90;99.90;;;;;;5074364;28;20396;-69
2022/08/21 02:38:06;;;;;;;6.60;3.70;;;13.90;99.90;;;;;;5073385;28;20418;-74
2022/08/21 02:40:36;;;;;;;4.37;3.97;;;13.90;99.90;;;;;;5094433;28;20979;-74
2022/08/21 02:43:05;;;;;;;6.03;4.40;;;13.80;99.90;;;;;;5076816;28;20421;-69
2022/08/21 02:45:32;;;;;;;4.77;3.90;;;13.80;99.90;;;;;;5074285;28;20392;-74
2022/08/21 02:48:07;;;;;;;5.37;3.97;;;13.80;99.90;;;;;;5089286;28;20431;-74
2022/08/21 02:50:40;;;;;;;5.07;4.60;;;13.80;99.90;;;;;;5077104;28;20404;-74
2022/08/21 02:53:07;;;;;;;4.67;4.27;;;13.80;99.90;;;;;;5077694;28;20508;-69
2022/08/21 02:55:37;;;;;;;5.20;4.50;;;13.80;99.90;;;;;;5056285;28;20459;-70
2022/08/21 02:58:05;;;;;;;4.53;4.17;;;13.80;99.90;;;;;;5088024;28;20427;-70
2022/08/21 03:00:33;;;;;;;7.57;4.90;;;13.80;99.90;;;;;;5094326;28;20970;-74
2022/08/21 03:02:59;;;;;;;5.70;5.20;;;13.80;99.90;;;;;;5061907;28;20408;-75
2022/08/21 03:05:30;;;;;;;5.03;4.60;;;13.80;99.90;;;;;;5073623;28;20877;-75
2022/08/21 03:07:58;;;;;;;4.80;4.33;;;13.90;99.90;;;;;;5085651;28;20518;-69
2022/08/21 03:10:34;;;;;;;;;;;;;;;;;;;;;
2022/08/21 03:13:03;;;;;;;5.23;4.83;;;13.90;99.90;;;;;;5092161;28;20419;-75
2022/08/21 03:15:29;;;;;;;5.10;4.60;;;13.90;99.90;;;;;;5075943;28;20435;-70
2022/08/21 03:17:56;;;;;;;6.30;4.50;;;13.90;99.90;;;;;;5076322;28;20506;-69
2022/08/21 03:20:24;;;;;;;6.73;3.93;;;13.90;99.90;;;;;;5062861;28;20501;-69
2022/08/21 03:22:52;;;;;;;4.40;4.10;;;14.00;99.90;;;;;;5093976;28;20439;-69
2022/08/21 03:25:18;;;;;;;4.40;4.00;;;14.00;99.90;;;;;;5069403;28;20420;-73
2022/08/21 03:27:44;;;;;;;7.40;4.50;;;14.00;99.90;;;;;;5072454;28;20539;-69
2022/08/21 03:30:11;;;;;;;9.57;4.73;;;14.00;99.90;;;;;;5056754;28;20462;-69
2022/08/21 03:32:37;;;;;;;4.80;4.40;;;14.00;99.90;;;;;;5056290;28;20748;-74
2022/08/21 03:35:04;;;;;;;5.40;4.27;;;14.00;99.90;;;;;;5076200;28;20418;-74
2022/08/21 03:37:30;;;;;;;5.50;4.47;;;14.00;99.90;;;;;;5073992;28;20424;-69
2022/08/21 03:39:57;;;;;;;5.77;5.20;;;14.00;99.90;;;;;;5091666;28;20450;-69
2022/08/21 03:42:23;;;;;;;4.40;4.10;;;14.00;99.90;;;;;;5055425;28;20405;-69
2022/08/21 03:44:49;;;;;;;4.00;3.70;;;14.00;99.90;;;;;;5055433;28;20205;-70
2022/08/21 03:47:15;;;;;;;5.40;4.50;;;14.00;99.90;;;;;;5092339;28;20166;-74
2022/08/21 03:49:41;;;;;;;4.23;3.93;;;14.00;99.90;;;;;;5093764;28;20386;-69
2022/08/21 03:52:07;;;;;;;5.93;4.80;;;14.00;99.90;;;;;;5056834;28;20177;-74
2022/08/21 03:54:33;;;;;;;4.90;4.47;;;14.00;99.90;;;;;;5072705;28;20411;-69
2022/08/21 03:56:59;;;;;;;5.97;4.17;;;14.00;99.90;;;;;;5088903;28;20862;-75
2022/08/21 03:59:25;;;;;;;4.53;4.10;;;14.00;99.90;;;;;;5093257;28;20201;-69
2022/08/21 04:01:56;;;;;;;5.90;4.60;;;14.00;99.90;;;;;;5060392;28;20892;-75
2022/08/21 04:04:22;;;;;;;5.07;4.10;;;14.00;99.90;;;;;;5055406;28;20249;-69
2022/08/21 04:06:49;;;;;;;12.10;4.80;;;14.00;99.90;;;;;;5086044;28;20430;-70
2022/08/21 04:09:16;;;;;;;4.20;3.90;;;14.00;99.90;;;;;;5093549;28;20503;-75
2022/08/21 04:11:54;;;;;;;8.27;4.90;;;14.00;99.90;;;;;;5079961;28;20420;-69
2022/08/21 04:14:20;;;;;;;5.23;4.73;;;14.00;99.90;;;;;;5073142;28;20405;-74
2022/08/21 04:16:46;;;;;;;6.57;5.10;;;14.10;99.90;;;;;;5067735;28;20417;-69
2022/08/21 04:19:13;;;;;;;7.37;5.07;;;14.00;99.90;;;;;;5079215;28;20536;-74
2022/08/21 04:21:40;;;;;;;5.63;5.07;;;14.00;99.90;;;;;;5095621;28;20415;-69
2022/08/21 04:24:10;;;;;;;5.97;4.70;;;14.10;99.90;;;;;;5097335;28;20423;-69
2022/08/21 04:26:39;;;;;;;5.73;5.03;;;14.00;99.90;;;;;;5067794;28;20911;-69
2022/08/21 04:29:06;;;;;;;4.73;4.43;;;14.00;99.90;;;;;;5076579;28;20431;-69
2022/08/21 04:31:34;;;;;;;5.20;4.47;;;14.10;99.90;;;;;;5085950;28;20760;-69
2022/08/21 04:34:00;;;;;;;7.70;4.50;;;14.10;99.90;;;;;;5097094;28;20448;-74
2022/08/21 04:36:34;;;;;;;6.77;5.67;;;14.10;99.90;;;;;;5070277;28;20508;-74
2022/08/21 04:38:59;;;;;;;4.90;4.60;;;14.10;99.90;;;;;;5076769;28;20509;-69
2022/08/21 04:41:26;;;;;;;4.90;4.37;;;14.10;99.90;;;;;;5087157;28;20494;-69
2022/08/21 04:43:52;;;;;;;5.77;5.10;;;14.10;99.90;;;;;;5096927;28;20370;-74
2022/08/21 04:46:20;;;;;;;8.80;5.03;;;14.10;99.90;;;;;;5085922;28;20765;-69
2022/08/21 04:48:46;;;;;;;4.90;4.40;;;14.10;99.90;;;;;;5058564;28;20197;-74
2022/08/21 04:51:32;;;;;;;5.13;4.73;;;14.10;99.90;;;;;;5084224;28;20411;-74
2022/08/21 04:54:09;;;;;;;5.60;4.17;;;14.10;99.90;;;;;;5096909;28;20178;-69
2022/08/21 04:56:45;;;;;;;6.63;5.53;;;14.20;99.90;;;;;;5062930;28;20447;-69
2022/08/21 04:59:17;;;;;;;6.67;5.27;;;14.20;99.90;;;;;;5076407;28;20872;-69
2022/08/21 05:01:44;;;;;;;11.60;5.07;;;14.30;99.90;;;;;;5071288;28;20469;-69
2022/08/21 05:04:14;;;;;;;6.27;5.67;;;14.30;99.90;;;;;;5096301;28;20469;-69
2022/08/21 05:06:43;;;;;;;16.77;7.70;;;14.30;99.90;;;;;;5081190;28;20395;-73
2022/08/21 05:09:11;;;;;;;7.97;6.20;;;14.40;99.90;;;;;;5076429;28;20795;-69
2022/08/21 05:11:37;;;;;;;6.93;4.93;;;14.40;99.90;;;;;;5088898;28;20394;-69
2022/08/21 05:14:04;;;;;;;6.83;5.20;;;14.40;99.90;;;;;;5096635;28;20776;-69
2022/08/21 05:16:30;;;;;;;10.63;5.83;;;14.50;99.90;;;;;;5065767;28;20863;-73
2022/08/21 05:18:56;;;;;;;6.10;5.57;;;14.60;99.90;;;;;;5059217;28;20547;-69
2022/08/21 05:21:21;;;;;;;7.90;5.47;;;14.60;99.90;;;;;;5095962;28;20395;-74
2022/08/21 05:23:48;;;;;;;4.83;4.40;;;14.70;99.90;;;;;;5096041;28;20431;-75
2022/08/21 05:26:13;;;;;;;5.40;4.73;;;14.70;99.90;;;;;;5093155;28;20181;-69
2022/08/21 05:28:39;;;;;;;6.10;4.50;;;14.80;99.90;;;;;;5094541;28;20443;-72
2022/08/21 05:31:05;;;;;;;5.37;4.63;;;14.80;99.90;;;;;;5076240;28;20182;-74
2022/08/21 05:33:31;;;;;;;5.40;4.70;;;14.90;99.90;;;;;;5074874;28;20396;-69
2022/08/21 05:35:58;;;;;;;12.13;5.40;;;14.90;99.90;;;;;;5090865;28;20200;-69
2022/08/21 05:38:43;;;;;;;6.33;5.17;;;15.00;99.90;;;;;;5093657;28;20411;-76
2022/08/21 05:44:35;;;;;;;5.00;4.63;;;15.10;99.90;;;;;;4973441;28;20453;-76
2022/08/21 05:47:08;;;;;;;6.70;4.57;;;15.10;99.90;;;;;;4974790;28;20427;-76
2022/08/21 05:49:35;;;;;;;7.57;4.90;;;15.30;99.90;;;;;;5042114;28;20409;-76
2022/08/21 05:52:19;;;;;;;13.07;4.70;;;15.30;99.90;;;;;;5075526;28;20409;-74
2022/08/21 05:54:53;;;;;;;5.77;5.03;;;15.40;99.90;;;;;;5093903;28;20498;-72
2022/08/21 05:57:20;;;;;;;7.50;4.27;;;15.40;99.90;;;;;;5083842;28;20417;-71
2022/08/21 05:59:46;;;;;;;7.10;4.13;;;15.50;99.90;;;;;;5078529;28;20447;-75
2022/08/21 06:02:12;;;;;;;5.07;4.57;;;15.60;99.90;;;;;;5094773;28;20400;-70
2022/08/21 06:04:55;;;;;;;4.97;4.43;;;15.70;99.90;;;;;;5091592;28;20423;-71
2022/08/21 06:07:22;;;;;;;9.27;4.73;;;15.80;99.90;;;;;;5083878;28;20971;-71
2022/08/21 06:09:48;;;;;;;6.73;4.10;;;15.90;99.90;;;;;;5075368;28;20921;-70
2022/08/21 06:12:14;;;;;;;10.73;4.57;;;16.00;99.90;;;;;;5083423;28;20503;-75
2022/08/21 06:14:43;;;;;;;6.90;4.13;;;16.10;99.90;;;;;;5093956;28;20435;-70
2022/08/21 06:17:13;;;;;;;4.93;4.40;;;16.10;99.90;;;;;;5084515;28;20455;-71
2022/08/21 06:19:39;;;;;;;6.60;4.80;;;16.10;99.90;;;;;;5077992;28;20447;-75
2022/08/21 06:22:06;;;;;;;4.40;4.03;;;16.20;99.90;;;;;;5091660;28;22185;-71
2022/08/21 06:24:33;;;;;;;4.80;4.33;;;16.30;99.90;;;;;;5087809;28;20427;-74
2022/08/21 06:27:08;;;;;;;5.10;4.70;;;16.40;99.90;;;;;;4312036;28;25127521;-72
2022/08/21 06:29:37;;;;;;;7.87;4.07;;;16.40;99.90;;;;;;5094538;28;20253;-72
2022/08/21 06:32:04;;;;;;;6.40;4.27;;;16.50;99.90;;;;;;5074473;28;20424;-71
2022/08/21 06:34:30;;;;;;;4.23;3.93;;;16.60;99.90;;;;;;5092640;28;20419;-71
2022/08/21 06:36:56;;;;;;;5.57;3.50;;;16.70;99.90;;;;;;5086068;28;20419;-75
2022/08/21 06:39:42;;;;;;;;;;;;;;;;;;;;;
2022/08/21 06:42:28;;;;;;;4.80;3.33;;;16.90;99.90;;;;;;5083759;28;20417;-69
2022/08/21 06:45:04;;;;;;;;;;;;;;;;;;;;;
2022/08/21 06:47:31;;;;;;;3.90;3.33;;;17.10;99.90;;;;;;5072989;28;20436;-69
2022/08/21 06:49:57;;;;;;;5.10;3.10;;;17.20;99.90;;;;;;5069943;28;20423;-68
2022/08/21 06:52:23;;;;;;;7.83;3.20;;;17.20;99.90;;;;;;5072449;28;20412;-74
2022/08/21 06:54:49;;;;;;;3.77;2.80;;;17.30;99.90;;;;;;5074326;28;20496;-74
2022/08/21 06:57:18;;;;;;;7.87;3.20;;;17.30;99.90;;;;;;5083404;28;20449;-69
2022/08/21 06:59:44;;;;;;;4.27;3.37;;;17.40;97.70;;;;;;5093393;28;20446;-69
2022/08/21 07:02:26;;;;;;;8.93;6.07;;;17.50;95.40;;;;;;5076591;28;20477;-75
2022/08/21 07:12:09;;;;;;;7.00;2.80;;;17.80;1.00;;;;;;5094272;28;20380;-73
2022/08/21 07:14:38;;;;;;;4.67;2.33;;;17.80;1.00;;;;;;5094247;28;20403;-73
2022/08/21 07:17:04;;;;;;;2.40;2.20;;;17.90;1.00;;;;;;5093444;28;20388;-69
2022/08/21 07:19:30;;;;;;;3.53;2.30;;;18.10;1.00;;;;;;5093899;28;20487;-72
2022/08/21 07:22:00;;;;;;;6.20;2.57;;;18.20;1.00;;;;;;5094054;28;20473;-68
2022/08/21 07:24:26;;;;;;;4.20;2.00;;;18.30;1.00;;;;;;5093947;28;20435;-69
2022/08/21 07:26:52;;;;;;;3.10;2.27;;;18.30;1.00;;;;;;5074620;28;20422;-73
2022/08/21 07:29:30;;;;;;;2.13;1.93;;;18.40;1.00;;;;;;5093766;28;20434;-74
2022/08/21 07:32:05;;;;;;;3.23;1.87;;;18.50;1.00;;;;;;5093770;28;20162;-69
2022/08/21 07:34:31;;;;;;;2.83;2.40;;;18.60;1.00;;;;;;5093942;28;20494;-74
2022/08/21 07:36:58;;;;;;;4.00;2.03;;;18.70;1.00;;;;;;5093126;28;20491;-69
2022/08/21 07:39:24;;;;;;;2.27;1.57;;;18.80;1.00;;;;;;5093554;28;20451;-70
2022/08/21 07:41:50;;;;;;;2.80;1.50;;;18.90;1.00;;;;;;5093610;28;20419;-70
2022/08/21 07:44:17;;;;;;;2.73;1.93;;;18.90;1.00;;;;;;5093880;28;20392;-74
2022/08/21 07:46:43;;;;;;;2.03;1.80;;;19.00;1.00;;;;;;5092558;28;20819;-69
2022/08/21 07:49:09;;;;;;;3.03;1.87;;;19.10;1.00;;;;;;5093637;28;20420;-74
2022/08/21 07:51:38;;;;;;;1.50;1.40;;;19.20;1.00;;;;;;5093428;28;20435;-70
2022/08/21 07:54:04;;;;;;;2.70;1.70;;;19.20;1.00;;;;;;5093604;28;20408;-73
2022/08/21 07:56:31;;;;;;;5.03;2.13;;;19.30;1.00;;;;;;5074853;28;20469;-69
2022/08/21 07:58:57;;;;;;;2.50;1.90;;;19.30;1.00;;;;;;5093576;28;20239;-69
2022/08/21 08:01:24;;;;;;;3.50;1.90;;;19.40;1.00;;;;;;5075715;28;20404;-74
2022/08/21 08:03:49;;;;;;;2.27;2.07;;;19.50;1.00;;;;;;5092986;28;20432;-68
2022/08/21 08:06:18;;;;;;;7.63;2.80;;;19.60;1.00;;;;;;5092700;28;20438;-68
2022/08/21 08:08:44;;;;;;;2.30;2.07;;;19.70;1.00;;;;;;5093387;28;20235;-74
2022/08/21 08:11:14;;;;;;;3.67;1.87;;;19.80;1.00;;;;;;5093433;28;20410;-74
2022/08/21 08:13:45;;;;;;;6.00;2.93;;;19.80;1.00;;;;;;5093480;28;20399;-73
2022/08/21 08:16:12;;;;;;;2.43;1.90;;;20.00;1.00;;;;;;5092681;28;20441;-69
2022/08/21 08:18:38;;;;;;;2.80;1.47;;;20.10;1.00;;;;;;5092920;28;20447;-71
2022/08/21 08:21:05;;;;;;;2.43;1.67;;;20.20;1.00;;;;;;5093386;28;20954;-72
2022/08/21 08:23:37;;;;;;;6.83;2.50;;;20.20;1.00;;;;;;5093340;28;20439;-69
2022/08/21 08:26:06;;;;;;;6.30;2.27;;;20.20;1.00;;;;;;5092347;28;20438;-72
2022/08/21 08:28:33;;;;;;;8.10;2.83;;;20.20;1.00;;;;;;5093109;28;20459;-74
2022/08/21 08:31:10;;;;;;;;;;;;;;;;;;;;;
2022/08/21 08:33:58;;;;;;;3.00;1.50;;;20.30;1.00;;;;;;5092607;28;20398;-73
2022/08/21 08:36:35;;;;;;;1.77;1.50;;;20.40;1.00;;;;;;5092219;28;20497;-70
2022/08/21 08:39:05;;;;;;;5.63;2.17;;;20.50;1.00;;;;;;5074402;28;20520;-74
2022/08/21 08:41:32;;;;;;;7.37;2.30;;;20.50;1.00;;;;;;5093120;28;20419;-74
2022/08/21 08:44:04;;;;;;;3.20;1.53;;;20.60;1.00;;;;;;5074791;28;20427;-69
2022/08/21 08:46:43;;;;;;;6.83;2.43;;;20.70;1.00;;;;;;5092314;28;20399;-70
2022/08/21 08:49:51;;;;;;;3.10;1.60;;;20.90;1.00;;;;;;5093290;28;20427;-69
2022/08/21 08:52:33;;;;;;;3.00;2.10;;;21.00;1.00;;;;;;5011036;28;21058;-69
2022/08/21 08:55:16;;;;;;;2.30;1.63;;;21.30;1.00;;;;;;5086642;28;20411;-74
2022/08/21 08:57:47;;;;;;;3.63;1.70;;;21.50;1.00;;;;;;5092176;28;20431;-70
2022/08/21 09:00:17;;;;;;;7.10;1.77;;;21.70;1.00;;;;;;5092508;28;20563;-69
2022/08/21 09:02:45;;;;;;;2.27;1.80;;;21.80;1.00;;;;;;5093905;28;20414;-69
2022/08/21 09:05:24;;;;;;;3.40;1.80;;;21.80;1.00;;;;;;5096529;28;20725;-69
2022/08/21 09:08:04;;;;;;;3.80;1.50;;;22.00;1.00;;;;;;5095880;28;20426;-74
2022/08/21 09:10:51;;;;;;;2.40;1.70;;;22.00;1.00;;;;;;5096569;28;20937;-69
2022/08/21 09:13:51;;;;;;;4.23;2.03;;;22.40;1.00;;;;;;5096710;28;20768;-73
2022/08/21 09:16:54;;;;;;;3.43;1.83;;;22.60;1.00;;;;;;5095382;28;20494;-72
2022/08/21 09:19:37;;;;;;;4.17;1.80;;;22.70;1.00;;;;;;5096243;28;20461;-74
2022/08/21 09:22:09;;;;;;;1.97;1.77;;;23.00;1.00;;;;;;5078370;28;20422;-74
2022/08/21 09:24:53;;;;;;;3.63;2.10;;;23.20;1.00;;;;;;5096215;28;20903;-74
2022/08/21 09:27:21;;;;;;;6.97;1.80;;;23.20;1.00;;;;;;5095484;28;20419;-74
2022/08/21 09:29:51;;;;;;;4.67;2.03;;;23.30;1.00;;;;;;5096119;28;20408;-70
2022/08/21 09:32:25;;;;;;;7.60;2.30;;;23.30;1.00;;;;;;5095492;28;20415;-69
2022/08/21 09:35:13;;;;;;;2.90;2.27;;;23.30;1.00;;;;;;5095891;28;20411;-70
2022/08/21 09:37:57;;;;;;;4.50;1.93;;;23.40;1.00;;;;;;5077177;28;20497;-69
2022/08/21 09:40:32;;;;;;;4.13;2.00;;;23.60;1.00;;;;;;5095871;28;20553;-74
2022/08/21 09:43:05;;;;;;;3.93;2.23;;;23.90;1.00;;;;;;5095831;28;20411;-73
2022/08/21 09:45:33;;;;;;;4.07;2.03;;;24.20;1.00;;;;;;5096030;28;20402;-69
2022/08/21 09:48:19;;;;;;;4.20;2.30;;;24.20;1.00;;;;;;5095095;28;20500;-74
2022/08/21 09:50:47;;;;;;;6.03;2.23;;;24.50;1.00;;;;;;5095264;28;20415;-70
2022/08/21 09:53:31;;;;;;;6.80;2.23;;;24.70;1.00;;;;;;5095486;28;20419;-74
2022/08/21 09:58:48;;;;;;;9.50;2.20;;;24.80;1.00;;;;;;5095245;28;20439;-70
2022/08/21 10:01:25;;;;;;;2.27;1.77;;;25.10;1.00;;;;;;5095659;28;20903;-74
2022/08/21 10:04:07;;;;;;;4.97;2.10;;;25.30;1.00;;;;;;5077439;28;20433;-74
2022/08/21 10:06:34;;;;;;;4.13;2.37;;;25.50;1.00;;;;;;5094831;28;20415;-74
2022/08/21 10:09:16;;;;;;;4.60;2.63;;;25.50;1.00;;;;;;5095369;28;20427;-73
2022/08/21 10:11:52;;;;;;;4.77;2.23;;;25.70;1.00;;;;;;5094948;28;20452;-74
2022/08/21 10:14:48;;;;;;;2.70;1.87;;;26.20;1.00;;;;;;5092543;28;21025;-69
2022/08/21 10:17:44;;;;;;;4.63;2.60;;;25.80;1.00;;;;;;5094431;28;20412;-70
2022/08/21 10:20:39;;;;;;;4.40;2.40;;;25.90;1.00;;;;;;5095266;28;20451;-69
2022/08/21 10:23:37;;;;;;;6.60;2.23;;;26.40;1.00;;;;;;5050461;28;20411;-74
2022/08/21 10:26:06;;;;;;;6.43;2.23;;;26.50;1.00;;;;;;5094468;28;20404;-69
2022/08/21 10:28:42;;;;;;;3.90;2.70;;;27.00;1.00;;;;;;5094430;28;20453;-73
2022/08/21 10:31:20;;;;;;;2.93;2.00;;;27.10;1.00;;;;;;5077110;28;20414;-74
2022/08/21 10:34:23;;;;;;;9.50;2.30;;;27.30;1.00;;;;;;5095212;28;20435;-75
2022/08/21 10:37:12;;;;;;;4.90;2.30;;;27.40;1.00;;;;;;5094309;28;20474;-69
2022/08/21 10:39:55;;;;;;;13.53;2.43;;;27.20;1.00;;;;;;5094753;28;20454;-74
2022/08/21 10:42:28;;;;;;;2.20;1.83;;;26.80;1.00;;;;;;5094899;28;20873;-69
2022/08/21 10:45:32;;;;;;;3.90;2.07;;;25.90;1.00;;;;;;5094680;28;20396;-69
2022/08/21 10:48:06;;;;;;;3.40;2.27;;;25.20;1.00;;;;;;5093525;28;20527;-70
2022/08/21 10:51:23;;;;;;;4.20;2.43;;;24.40;1.00;;;;;;5094587;28;20422;-74
2022/08/21 10:53:58;;;;;;;2.93;2.50;;;24.70;1.00;;;;;;5034742;28;20510;-69
2022/08/21 10:56:28;;;;;;;6.93;4.13;;;24.90;1.00;;;;;;5093900;28;20460;-70
2022/08/21 10:59:13;;;;;;;8.87;2.30;;;24.90;1.00;;;;;;5094402;28;20427;-69
2022/08/21 11:01:49;;;;;;;4.57;2.10;;;24.70;1.00;;;;;;5094297;28;20403;-74
2022/08/21 11:04:25;;;;;;;4.83;2.00;;;24.00;1.00;;;;;;5094495;28;20406;-69
2022/08/21 11:06:58;;;;;;;4.57;2.57;;;24.60;1.00;;;;;;5093164;28;20395;-69
2022/08/21 11:09:26;;;;;;;2.47;2.00;;;25.70;1.00;;;;;;5094100;28;20419;-70
2022/08/21 11:11:57;;;;;;;2.53;1.90;;;26.70;1.00;;;;;;5076406;28;20450;-70
2022/08/21 11:15:07;;;;;;;2.17;1.40;;;27.50;1.00;;;;;;5094150;28;20391;-70
2022/08/21 11:17:43;;;;;;;2.80;1.83;;;27.60;1.00;;;;;;4994868;28;20434;-70
2022/08/21 11:20:48;;;;;;;3.07;1.43;;;27.10;1.00;;;;;;5012254;28;20450;-74
2022/08/21 11:23:25;;;;;;;2.73;1.87;;;27.50;1.00;;;;;;5078304;28;20419;-70
2022/08/21 11:26:01;;;;;;;3.13;1.60;;;28.00;1.00;;;;;;5093091;28;20400;-74
2022/08/21 11:28:32;;;;;;;3.20;1.30;;;28.50;1.00;;;;;;5093848;28;20443;-70
2022/08/21 11:31:12;;;;;;;2.27;1.93;;;29.20;1.00;;;;;;5093921;28;20391;-75
2022/08/21 11:33:56;;;;;;;3.10;1.63;;;29.30;1.00;;;;;;5093794;28;20880;-73
2022/08/21 11:36:34;;;;;;;1.77;1.57;;;28.60;1.00;;;;;;5092263;28;20498;-70
2022/08/21 11:39:24;;;;;;;2.10;1.57;;;28.80;1.00;;;;;;5093718;28;20451;-70
2022/08/21 11:42:21;;;;;;;7.33;1.40;;;29.40;1.00;;;;;;5075620;28;20804;-70
2022/08/21 11:45:01;;;;;;;2.03;1.10;;;30.20;1.00;;;;;;5093420;28;20419;-70
2022/08/21 11:47:42;;;;;;;2.10;1.20;;;30.60;1.00;;;;;;5074974;28;20403;-70
2022/08/21 11:50:18;;;;;;;1.50;1.30;;;31.00;1.00;;;;;;5093578;28;20396;-75
2022/08/21 11:52:56;;;;;;;2.03;1.07;;;31.30;1.00;;;;;;5075399;28;20407;-75
2022/08/21 11:55:45;;;;;;;2.80;1.13;;;31.80;1.00;;;;;;5075748;28;20836;-70
2022/08/21 11:58:22;;;;;;;5.13;1.07;;;31.70;1.00;;;;;;5054190;28;20438;-75
2022/08/21 12:00:59;;;;;;;1.50;1.20;;;31.90;1.00;;;;;;5092189;28;20498;-70
2022/08/21 12:03:36;;;;;;;1.97;1.23;;;32.40;1.00;;;;;;5093181;28;20403;-71
2022/08/21 12:06:06;;;;;;;2.57;1.47;;;32.90;1.00;;;;;;5092698;28;20403;-74
2022/08/21 12:08:38;;;;;;;1.30;1.10;;;32.70;1.00;;;;;;5075261;28;20424;-70
2022/08/21 12:11:23;;;;;;;1.10;0.80;;;32.30;1.00;;;;;;5093575;28;20880;-75
2022/08/21 12:13:54;;;;;;;1.47;1.00;;;32.70;1.00;;;;;;5075381;28;20888;-71
2022/08/21 12:16:35;;;;;;;1.90;0.87;;;33.00;1.00;;;;;;5074936;28;20418;-71
2022/08/21 12:19:29;;;;;;;2.23;1.10;;;33.20;1.00;;;;;;5093299;28;20773;-70
2022/08/21 12:22:03;;;;;;;1.87;1.00;;;33.20;1.00;;;;;;5074581;28;20420;-71
2022/08/21 12:24:31;;;;;;;1.80;0.90;;;33.20;1.00;;;;;;5075208;28;20412;-71
2022/08/21 12:27:31;;;;;;;2.27;0.93;;;33.20;1.00;;;;;;5074739;28;20851;-74
2022/08/21 12:30:18;;;;;;;1.40;0.80;;;32.10;1.00;;;;;;5075116;28;20916;-71
2022/08/21 12:32:53;;;;;;;1.53;0.70;;;31.20;1.00;;;;;;5093326;28;20422;-70
2022/08/21 12:35:24;;;;;;;1.57;1.00;;;30.80;1.00;;;;;;5075260;28;20447;-71
2022/08/21 12:38:17;;;;;;;1.60;1.00;;;30.30;1.00;;;;;;5076018;28;20489;-71
2022/08/21 12:40:50;;;;;;;1.57;0.80;;;29.50;1.00;;;;;;5096623;28;20447;-75
2022/08/21 12:43:34;;;;;;;2.30;0.70;;;29.20;1.00;;;;;;5078952;28;20450;-72
2022/08/21 12:46:03;;;;;;;2.17;1.13;;;28.80;1.00;;;;;;5096489;28;20407;-73
2022/08/21 12:49:16;;;;;;;1.10;0.90;;;28.50;1.00;;;;;;5078731;28;20423;-75
2022/08/21 12:52:09;;;;;;;1.47;0.90;;;28.80;1.00;;;;;;5079337;28;20508;-74
2022/08/21 12:54:42;;;;;;;1.13;1.03;;;28.80;1.00;;;;;;5096901;28;20403;-71
2022/08/21 12:57:18;;;;;;;2.20;1.00;;;29.00;1.00;;;;;;5077458;28;20414;-74
2022/08/21 12:59:44;;;;;;;1.10;0.80;;;29.30;1.00;;;;;;5096811;28;20496;-71
2022/08/21 13:02:23;;;;;;;1.20;1.00;;;29.60;1.00;;;;;;5096724;28;20488;-71
2022/08/21 13:04:50;;;;;;;1.20;0.83;;;30.00;1.00;;;;;;5096677;28;20165;-76
2022/08/21 13:07:24;;;;;;;1.50;0.90;;;30.20;1.00;;;;;;5077751;28;20411;-71
2022/08/21 13:09:55;;;;;;;5.13;0.80;;;29.90;1.00;;;;;;5078528;28;20437;-72
2022/08/21 13:12:22;;;;;;;1.03;0.77;;;29.70;1.00;;;;;;5096639;28;20396;-75
2022/08/21 13:14:51;;;;;;;1.13;0.80;;;29.70;1.00;;;;;;5078353;28;20407;-75
2022/08/21 13:17:21;;;;;;;2.03;0.80;;;29.40;1.00;;;;;;5095348;28;20895;-71
2022/08/21 13:20:09;;;;;;;1.10;0.97;;;29.30;1.00;;;;;;5096479;28;20447;-70
2022/08/21 13:22:43;;;;;;;1.30;0.73;;;29.00;1.00;;;;;;5096397;28;20396;-71
2022/08/21 13:25:17;;;;;;;2.07;0.97;;;29.00;1.00;;;;;;5096369;28;20436;-72
2022/08/21 13:27:47;;;;;;;1.30;0.83;;;28.80;1.00;;;;;;5095458;28;20438;-75
2022/08/21 13:30:19;;;;;;;4.70;1.03;;;28.80;1.00;;;;;;5096258;28;20407;-76
2022/08/21 13:32:52;;;;;;;1.30;1.03;;;28.90;1.00;;;;;;5096179;28;20778;-76
2022/08/21 13:35:46;;;;;;;1.20;0.73;;;28.90;1.00;;;;;;5095604;28;20418;-72
2022/08/21 13:38:13;;;;;;;1.47;0.80;;;29.00;1.00;;;;;;5095535;28;20448;-71
2022/08/21 13:41:16;;;;;;;1.80;0.90;;;28.80;1.00;;;;;;5077669;28;20463;-75